Armadale, United Kingdom
Current Conditions -  °F | °C
As of 5:20 AM on Monday 22 Dec 2014 (Local Time) from EGPH Reporting Station
Light Rain Light Rain  
Wind Chill: 41°   Ceiling: 4900
Heat Index: 46°   Visibility: 6mi
Dew Point: 43°   Wind: 12mph
Humidity: 87%   Direction: 300°WNW
Pressure: 29.56"   Gusts: NA
Location:  55.88°N, 3.7°W
Report Text: EGPH 220520Z 30010KT 260V340 9999 -RA BKN049TCU 08/06 Q1001
Loading
Personal Weather Stations






























Interactive Weather Map New forecast layout! Learn more

10-Day Weather Forecast

Advertisements
Track Severe Weather on mobile